sensor_id;sensor_type;location;lat;lon;timestamp;temperature;humidity
4739;DHT22;2383;48.632;10.156;2024-02-14T00:02:31;2.10;99.50
4739;DHT22;2383;48.632;10.156;2024-02-14T00:06:36;2.40;99.00
4739;DHT22;2383;48.632;10.156;2024-02-14T00:10:39;2.60;98.80
4739;DHT22;2383;48.632;10.156;2024-02-14T00:14:41;2.70;98.50
4739;DHT22;2383;48.632;10.156;2024-02-14T00:18:44;2.80;98.40
4739;DHT22;2383;48.632;10.156;2024-02-14T00:22:47;2.80;98.00
4739;DHT22;2383;48.632;10.156;2024-02-14T00:26:49;2.80;98.10
4739;DHT22;2383;48.632;10.156;2024-02-14T00:30:51;2.90;98.00
4739;DHT22;2383;48.632;10.156;2024-02-14T00:34:53;2.70;98.10
4739;DHT22;2383;48.632;10.156;2024-02-14T00:38:55;2.70;98.00
4739;DHT22;2383;48.632;10.156;2024-02-14T00:42:58;2.00;98.40
4739;DHT22;2383;48.632;10.156;2024-02-14T00:47:00;1.90;98.60
4739;DHT22;2383;48.632;10.156;2024-02-14T00:51:03;2.00;98.80
4739;DHT22;2383;48.632;10.156;2024-02-14T00:55:06;2.20;98.70
4739;DHT22;2383;48.632;10.156;2024-02-14T00:59:08;2.30;98.40
4739;DHT22;2383;48.632;10.156;2024-02-14T01:03:10;2.40;98.20
4739;DHT22;2383;48.632;10.156;2024-02-14T01:07:14;2.50;98.20
4739;DHT22;2383;48.632;10.156;2024-02-14T01:11:16;2.50;97.90
4739;DHT22;2383;48.632;10.156;2024-02-14T01:15:19;2.40;98.20
4739;DHT22;2383;48.632;10.156;2024-02-14T01:19:22;2.50;98.40
4739;DHT22;2383;48.632;10.156;2024-02-14T01:23:26;2.70;98.00
4739;DHT22;2383;48.632;10.156;2024-02-14T01:27:28;2.70;97.90
4739;DHT22;2383;48.632;10.156;2024-02-14T01:31:30;2.70;98.20
4739;DHT22;2383;48.632;10.156;2024-02-14T01:35:33;2.70;98.30
4739;DHT22;2383;48.632;10.156;2024-02-14T01:39:35;2.70;98.00
4739;DHT22;2383;48.632;10.156;2024-02-14T01:43:37;2.60;97.90
4739;DHT22;2383;48.632;10.156;2024-02-14T01:47:39;2.40;97.90
4739;DHT22;2383;48.632;10.156;2024-02-14T01:51:43;2.30;98.00
4739;DHT22;2383;48.632;10.156;2024-02-14T01:55:46;2.30;98.20
4739;DHT22;2383;48.632;10.156;2024-02-14T01:59:49;2.40;97.90
4739;DHT22;2383;48.632;10.156;2024-02-14T02:03:54;2.40;98.10
4739;DHT22;2383;48.632;10.156;2024-02-14T02:07:57;2.50;98.00
4739;DHT22;2383;48.632;10.156;2024-02-14T02:11:58;2.40;98.10
4739;DHT22;2383;48.632;10.156;2024-02-14T02:16:03;2.50;98.20
4739;DHT22;2383;48.632;10.156;2024-02-14T02:20:07;2.50;98.10
4739;DHT22;2383;48.632;10.156;2024-02-14T02:24:10;2.50;98.10
4739;DHT22;2383;48.632;10.156;2024-02-14T02:28:12;2.50;98.00
4739;DHT22;2383;48.632;10.156;2024-02-14T02:32:14;2.50;98.20
4739;DHT22;2383;48.632;10.156;2024-02-14T02:36:18;2.50;98.00
4739;DHT22;2383;48.632;10.156;2024-02-14T02:40:20;2.40;98.10
4739;DHT22;2383;48.632;10.156;2024-02-14T02:44:23;2.30;98.20
4739;DHT22;2383;48.632;10.156;2024-02-14T02:48:25;2.30;98.20
4739;DHT22;2383;48.632;10.156;2024-02-14T02:52:27;2.30;98.50
4739;DHT22;2383;48.632;10.156;2024-02-14T02:56:30;2.30;98.80
4739;DHT22;2383;48.632;10.156;2024-02-14T03:00:33;2.50;98.60
4739;DHT22;2383;48.632;10.156;2024-02-14T03:04:35;2.60;98.60
4739;DHT22;2383;48.632;10.156;2024-02-14T03:08:52;2.70;98.60
4739;DHT22;2383;48.632;10.156;2024-02-14T03:12:57;2.80;98.40
4739;DHT22;2383;48.632;10.156;2024-02-14T03:16:59;2.90;98.40
4739;DHT22;2383;48.632;10.156;2024-02-14T03:21:02;2.80;98.30
4739;DHT22;2383;48.632;10.156;2024-02-14T03:25:04;2.80;98.60
4739;DHT22;2383;48.632;10.156;2024-02-14T03:29:06;2.80;98.70
4739;DHT22;2383;48.632;10.156;2024-02-14T03:33:08;2.90;98.60
4739;DHT22;2383;48.632;10.156;2024-02-14T03:37:10;2.90;98.60
4739;DHT22;2383;48.632;10.156;2024-02-14T03:41:12;2.90;98.60
4739;DHT22;2383;48.632;10.156;2024-02-14T03:45:15;2.90;98.60
4739;DHT22;2383;48.632;10.156;2024-02-14T03:49:17;3.00;98.60
4739;DHT22;2383;48.632;10.156;2024-02-14T03:53:19;3.10;98.50
4739;DHT22;2383;48.632;10.156;2024-02-14T03:57:21;3.10;98.70
4739;DHT22;2383;48.632;10.156;2024-02-14T04:01:23;3.10;98.70
4739;DHT22;2383;48.632;10.156;2024-02-14T04:05:25;3.20;98.80
4739;DHT22;2383;48.632;10.156;2024-02-14T04:09:33;3.20;98.80
4739;DHT22;2383;48.632;10.156;2024-02-14T04:13:35;3.20;98.80
4739;DHT22;2383;48.632;10.156;2024-02-14T04:17:37;3.30;98.90
4739;DHT22;2383;48.632;10.156;2024-02-14T04:21:39;3.30;98.90
4739;DHT22;2383;48.632;10.156;2024-02-14T04:25:42;3.30;98.90
4739;DHT22;2383;48.632;10.156;2024-02-14T04:29:48;3.30;98.60
4739;DHT22;2383;48.632;10.156;2024-02-14T04:33:50;3.30;98.60
4739;DHT22;2383;48.632;10.156;2024-02-14T04:37:54;3.40;98.80
4739;DHT22;2383;48.632;10.156;2024-02-14T04:41:57;3.10;99.10
4739;DHT22;2383;48.632;10.156;2024-02-14T04:46:03;3.20;99.00
4739;DHT22;2383;48.632;10.156;2024-02-14T04:50:09;3.30;99.00
4739;DHT22;2383;48.632;10.156;2024-02-14T04:54:10;3.40;98.90
4739;DHT22;2383;48.632;10.156;2024-02-14T04:58:13;3.40;98.90
4739;DHT22;2383;48.632;10.156;2024-02-14T05:02:15;3.40;98.90
4739;DHT22;2383;48.632;10.156;2024-02-14T05:06:17;3.50;99.00
4739;DHT22;2383;48.632;10.156;2024-02-14T05:10:19;3.60;99.00
4739;DHT22;2383;48.632;10.156;2024-02-14T05:14:21;3.60;98.90
4739;DHT22;2383;48.632;10.156;2024-02-14T05:18:23;3.50;98.90
4739;DHT22;2383;48.632;10.156;2024-02-14T05:22:25;3.60;98.50
4739;DHT22;2383;48.632;10.156;2024-02-14T05:26:31;3.50;98.80
4739;DHT22;2383;48.632;10.156;2024-02-14T05:30:33;3.40;98.80
4739;DHT22;2383;48.632;10.156;2024-02-14T05:34:35;3.50;98.90
4739;DHT22;2383;48.632;10.156;2024-02-14T05:38:38;3.50;99.10
4739;DHT22;2383;48.632;10.156;2024-02-14T05:42:39;3.50;99.00
4739;DHT22;2383;48.632;10.156;2024-02-14T05:46:42;3.50;99.00
4739;DHT22;2383;48.632;10.156;2024-02-14T05:50:44;3.50;98.90
4739;DHT22;2383;48.632;10.156;2024-02-14T05:54:46;3.50;99.10
4739;DHT22;2383;48.632;10.156;2024-02-14T05:58:48;3.40;99.30
4739;DHT22;2383;48.632;10.156;2024-02-14T06:02:50;3.60;99.50
4739;DHT22;2383;48.632;10.156;2024-02-14T06:06:52;3.60;99.20
4739;DHT22;2383;48.632;10.156;2024-02-14T06:10:54;3.60;99.40
4739;DHT22;2383;48.632;10.156;2024-02-14T06:14:56;3.70;99.50
4739;DHT22;2383;48.632;10.156;2024-02-14T06:18:59;3.80;99.40
4739;DHT22;2383;48.632;10.156;2024-02-14T06:23:01;3.80;99.30
4739;DHT22;2383;48.632;10.156;2024-02-14T06:27:07;3.80;99.40
4739;DHT22;2383;48.632;10.156;2024-02-14T06:31:09;3.80;99.30
4739;DHT22;2383;48.632;10.156;2024-02-14T06:35:11;3.90;99.30
4739;DHT22;2383;48.632;10.156;2024-02-14T06:39:14;3.60;99.40
4739;DHT22;2383;48.632;10.156;2024-02-14T06:43:16;3.70;99.30
4739;DHT22;2383;48.632;10.156;2024-02-14T06:47:18;3.90;99.30
4739;DHT22;2383;48.632;10.156;2024-02-14T06:51:20;3.60;99.30
4739;DHT22;2383;48.632;10.156;2024-02-14T06:55:22;3.30;99.80
4739;DHT22;2383;48.632;10.156;2024-02-14T06:59:24;3.50;99.50
4739;DHT22;2383;48.632;10.156;2024-02-14T07:03:26;3.70;99.60
4739;DHT22;2383;48.632;10.156;2024-02-14T07:07:28;3.80;99.60
4739;DHT22;2383;48.632;10.156;2024-02-14T07:11:30;3.80;99.60
4739;DHT22;2383;48.632;10.156;2024-02-14T07:15:32;3.80;99.60
4739;DHT22;2383;48.632;10.156;2024-02-14T07:19:34;3.80;99.70
4739;DHT22;2383;48.632;10.156;2024-02-14T07:23:36;3.90;99.70
4739;DHT22;2383;48.632;10.156;2024-02-14T07:27:39;4.00;99.10
4739;DHT22;2383;48.632;10.156;2024-02-14T07:31:41;4.00;99.10
4739;DHT22;2383;48.632;10.156;2024-02-14T07:35:43;3.90;99.80
4739;DHT22;2383;48.632;10.156;2024-02-14T07:39:45;4.10;99.30
4739;DHT22;2383;48.632;10.156;2024-02-14T07:43:48;4.20;99.40
4739;DHT22;2383;48.632;10.156;2024-02-14T07:47:52;4.30;99.30
4739;DHT22;2383;48.632;10.156;2024-02-14T07:51:54;4.50;99.50
4739;DHT22;2383;48.632;10.156;2024-02-14T07:55:56;4.60;99.40
4739;DHT22;2383;48.632;10.156;2024-02-14T07:59:59;4.80;99.50
4739;DHT22;2383;48.632;10.156;2024-02-14T08:04:01;4.90;99.50
4739;DHT22;2383;48.632;10.156;2024-02-14T08:08:04;5.00;99.30
4739;DHT22;2383;48.632;10.156;2024-02-14T08:12:06;5.10;99.50
4739;DHT22;2383;48.632;10.156;2024-02-14T08:16:08;5.30;99.60
4739;DHT22;2383;48.632;10.156;2024-02-14T08:20:11;5.40;99.60
4739;DHT22;2383;48.632;10.156;2024-02-14T08:24:13;5.50;99.80
4739;DHT22;2383;48.632;10.156;2024-02-14T08:28:15;5.50;99.80
4739;DHT22;2383;48.632;10.156;2024-02-14T08:32:19;5.60;99.80
4739;DHT22;2383;48.632;10.156;2024-02-14T08:36:23;5.70;99.90
4739;DHT22;2383;48.632;10.156;2024-02-14T08:40:25;5.80;99.80
4739;DHT22;2383;48.632;10.156;2024-02-14T08:44:27;6.10;99.90
4739;DHT22;2383;48.632;10.156;2024-02-14T08:48:30;6.00;99.80
4739;DHT22;2383;48.632;10.156;2024-02-14T08:52:36;6.10;99.70
4739;DHT22;2383;48.632;10.156;2024-02-14T08:56:39;6.20;99.90
4739;DHT22;2383;48.632;10.156;2024-02-14T09:00:41;6.20;99.90
4739;DHT22;2383;48.632;10.156;2024-02-14T09:04:44;6.30;99.90
4739;DHT22;2383;48.632;10.156;2024-02-14T09:08:46;6.50;99.80
4739;DHT22;2383;48.632;10.156;2024-02-14T09:12:48;6.10;99.90
4739;DHT22;2383;48.632;10.156;2024-02-14T09:16:50;6.40;99.90
4739;DHT22;2383;48.632;10.156;2024-02-14T09:20:53;6.60;99.90
4739;DHT22;2383;48.632;10.156;2024-02-14T09:24:55;6.80;99.90
4739;DHT22;2383;48.632;10.156;2024-02-14T09:28:59;7.00;99.80
4739;DHT22;2383;48.632;10.156;2024-02-14T09:33:01;7.30;99.30
4739;DHT22;2383;48.632;10.156;2024-02-14T09:37:03;7.30;99.30
4739;DHT22;2383;48.632;10.156;2024-02-14T09:41:32;7.20;99.00
4739;DHT22;2383;48.632;10.156;2024-02-14T09:45:39;7.00;99.00
4739;DHT22;2383;48.632;10.156;2024-02-14T09:49:43;7.30;99.20
4739;DHT22;2383;48.632;10.156;2024-02-14T09:53:46;7.40;98.90
4739;DHT22;2383;48.632;10.156;2024-02-14T09:57:49;7.60;98.90
4739;DHT22;2383;48.632;10.156;2024-02-14T10:01:51;7.60;98.60
4739;DHT22;2383;48.632;10.156;2024-02-14T10:05:54;7.50;98.50
4739;DHT22;2383;48.632;10.156;2024-02-14T10:10:06;7.10;99.10
4739;DHT22;2383;48.632;10.156;2024-02-14T10:14:08;7.10;99.10
4739;DHT22;2383;48.632;10.156;2024-02-14T10:18:14;7.50;98.40
4739;DHT22;2383;48.632;10.156;2024-02-14T10:22:18;7.90;98.70
4739;DHT22;2383;48.632;10.156;2024-02-14T10:26:20;7.70;99.00
4739;DHT22;2383;48.632;10.156;2024-02-14T10:30:22;8.00;98.90
4739;DHT22;2383;48.632;10.156;2024-02-14T10:34:25;7.70;99.10
4739;DHT22;2383;48.632;10.156;2024-02-14T10:38:31;8.10;99.00
4739;DHT22;2383;48.632;10.156;2024-02-14T10:42:37;8.30;98.50
4739;DHT22;2383;48.632;10.156;2024-02-14T10:46:40;8.40;98.70
4739;DHT22;2383;48.632;10.156;2024-02-14T10:50:43;8.50;99.10
4739;DHT22;2383;48.632;10.156;2024-02-14T10:54:54;8.60;99.50
4739;DHT22;2383;48.632;10.156;2024-02-14T10:58:59;8.40;99.20
4739;DHT22;2383;48.632;10.156;2024-02-14T11:03:02;8.80;99.20
4739;DHT22;2383;48.632;10.156;2024-02-14T11:07:09;9.00;99.50
4739;DHT22;2383;48.632;10.156;2024-02-14T11:11:12;9.10;99.90
4739;DHT22;2383;48.632;10.156;2024-02-14T11:15:19;9.00;99.90
4739;DHT22;2383;48.632;10.156;2024-02-14T11:19:33;9.10;99.90
4739;DHT22;2383;48.632;10.156;2024-02-14T11:23:37;9.00;99.90
4739;DHT22;2383;48.632;10.156;2024-02-14T11:27:46;9.30;99.90
4739;DHT22;2383;48.632;10.156;2024-02-14T11:31:48;9.30;99.90
4739;DHT22;2383;48.632;10.156;2024-02-14T11:35:51;10.00;99.90
4739;DHT22;2383;48.632;10.156;2024-02-14T11:39:54;10.30;99.90
4739;DHT22;2383;48.632;10.156;2024-02-14T11:44:04;10.00;99.90
4739;DHT22;2383;48.632;10.156;2024-02-14T11:48:10;10.20;99.90
4739;DHT22;2383;48.632;10.156;2024-02-14T11:52:12;10.40;99.90
4739;DHT22;2383;48.632;10.156;2024-02-14T11:56:16;9.80;99.90
4739;DHT22;2383;48.632;10.156;2024-02-14T12:00:18;9.20;99.90
4739;DHT22;2383;48.632;10.156;2024-02-14T12:04:20;9.20;99.90
4739;DHT22;2383;48.632;10.156;2024-02-14T12:08:23;9.70;99.90
4739;DHT22;2383;48.632;10.156;2024-02-14T12:12:25;9.10;99.90
4739;DHT22;2383;48.632;10.156;2024-02-14T12:16:28;8.90;99.90
4739;DHT22;2383;48.632;10.156;2024-02-14T12:20:30;8.90;99.90
4739;DHT22;2383;48.632;10.156;2024-02-14T12:24:32;9.70;99.90
4739;DHT22;2383;48.632;10.156;2024-02-14T12:28:35;9.90;99.90
4739;DHT22;2383;48.632;10.156;2024-02-14T12:32:38;9.80;99.90
4739;DHT22;2383;48.632;10.156;2024-02-14T12:36:40;9.80;99.90
4739;DHT22;2383;48.632;10.156;2024-02-14T12:40:42;10.40;99.90
4739;DHT22;2383;48.632;10.156;2024-02-14T12:44:45;10.90;99.90
4739;DHT22;2383;48.632;10.156;2024-02-14T12:48:48;10.50;99.90
4739;DHT22;2383;48.632;10.156;2024-02-14T12:52:50;9.80;99.90
4739;DHT22;2383;48.632;10.156;2024-02-14T12:56:52;9.20;99.90
4739;DHT22;2383;48.632;10.156;2024-02-14T13:00:54;9.10;99.90
4739;DHT22;2383;48.632;10.156;2024-02-14T13:04:57;9.00;99.90
4739;DHT22;2383;48.632;10.156;2024-02-14T13:08:59;8.50;99.90
4739;DHT22;2383;48.632;10.156;2024-02-14T13:13:02;8.50;99.90
4739;DHT22;2383;48.632;10.156;2024-02-14T13:17:04;8.60;99.90
4739;DHT22;2383;48.632;10.156;2024-02-14T13:21:07;8.90;99.90
4739;DHT22;2383;48.632;10.156;2024-02-14T13:25:09;8.90;99.90
4739;DHT22;2383;48.632;10.156;2024-02-14T13:29:11;9.00;99.90
4739;DHT22;2383;48.632;10.156;2024-02-14T13:33:14;9.20;99.90
4739;DHT22;2383;48.632;10.156;2024-02-14T13:37:16;9.00;99.90
4739;DHT22;2383;48.632;10.156;2024-02-14T13:41:18;9.10;99.90
4739;DHT22;2383;48.632;10.156;2024-02-14T13:45:20;8.60;99.90
4739;DHT22;2383;48.632;10.156;2024-02-14T13:49:24;9.90;99.90
4739;DHT22;2383;48.632;10.156;2024-02-14T13:53:26;9.30;99.90
4739;DHT22;2383;48.632;10.156;2024-02-14T13:57:28;9.00;99.90
4739;DHT22;2383;48.632;10.156;2024-02-14T14:01:32;8.40;99.90
4739;DHT22;2383;48.632;10.156;2024-02-14T14:05:34;8.40;99.90
4739;DHT22;2383;48.632;10.156;2024-02-14T14:09:36;8.90;99.90
4739;DHT22;2383;48.632;10.156;2024-02-14T14:13:39;8.70;99.90
4739;DHT22;2383;48.632;10.156;2024-02-14T14:17:41;9.00;99.90
4739;DHT22;2383;48.632;10.156;2024-02-14T14:21:44;9.20;99.90
4739;DHT22;2383;48.632;10.156;2024-02-14T14:25:46;9.30;99.90
4739;DHT22;2383;48.632;10.156;2024-02-14T14:29:48;9.60;99.90
4739;DHT22;2383;48.632;10.156;2024-02-14T14:33:51;9.50;99.90
4739;DHT22;2383;48.632;10.156;2024-02-14T14:37:53;10.00;99.90
4739;DHT22;2383;48.632;10.156;2024-02-14T14:41:56;10.20;99.90
4739;DHT22;2383;48.632;10.156;2024-02-14T14:46:00;10.40;99.90
4739;DHT22;2383;48.632;10.156;2024-02-14T14:50:03;10.70;99.90
4739;DHT22;2383;48.632;10.156;2024-02-14T14:54:05;10.90;99.90
4739;DHT22;2383;48.632;10.156;2024-02-14T14:58:13;11.00;99.90
4739;DHT22;2383;48.632;10.156;2024-02-14T15:02:15;11.00;99.90
4739;DHT22;2383;48.632;10.156;2024-02-14T15:06:17;11.20;99.90
4739;DHT22;2383;48.632;10.156;2024-02-14T15:10:20;11.00;99.90
4739;DHT22;2383;48.632;10.156;2024-02-14T15:14:23;11.10;99.90
4739;DHT22;2383;48.632;10.156;2024-02-14T15:18:25;11.20;99.90
4739;DHT22;2383;48.632;10.156;2024-02-14T15:22:28;11.20;99.90
4739;DHT22;2383;48.632;10.156;2024-02-14T15:26:32;11.30;99.90
4739;DHT22;2383;48.632;10.156;2024-02-14T15:30:51;11.30;99.90
4739;DHT22;2383;48.632;10.156;2024-02-14T15:35:12;11.30;99.90
4739;DHT22;2383;48.632;10.156;2024-02-14T15:39:15;11.30;99.90
4739;DHT22;2383;48.632;10.156;2024-02-14T15:43:17;11.30;99.90
4739;DHT22;2383;48.632;10.156;2024-02-14T15:47:19;11.30;99.90
4739;DHT22;2383;48.632;10.156;2024-02-14T15:51:21;11.30;99.90
4739;DHT22;2383;48.632;10.156;2024-02-14T15:55:25;11.30;99.90
4739;DHT22;2383;48.632;10.156;2024-02-14T15:59:27;11.30;99.90
4739;DHT22;2383;48.632;10.156;2024-02-14T16:03:29;11.40;99.90
4739;DHT22;2383;48.632;10.156;2024-02-14T16:07:32;11.30;99.90
4739;DHT22;2383;48.632;10.156;2024-02-14T16:11:34;11.20;99.90
4739;DHT22;2383;48.632;10.156;2024-02-14T16:15:36;11.20;99.90
4739;DHT22;2383;48.632;10.156;2024-02-14T16:19:39;11.10;99.90
4739;DHT22;2383;48.632;10.156;2024-02-14T16:23:41;11.00;99.90
4739;DHT22;2383;48.632;10.156;2024-02-14T16:27:43;10.80;99.90
4739;DHT22;2383;48.632;10.156;2024-02-14T16:31:48;10.80;99.90
4739;DHT22;2383;48.632;10.156;2024-02-14T16:35:51;10.90;99.90
4739;DHT22;2383;48.632;10.156;2024-02-14T16:39:53;10.80;99.90
4739;DHT22;2383;48.632;10.156;2024-02-14T16:43:58;10.80;99.90
4739;DHT22;2383;48.632;10.156;2024-02-14T16:48:00;10.70;99.90
4739;DHT22;2383;48.632;10.156;2024-02-14T16:52:03;10.70;99.90
4739;DHT22;2383;48.632;10.156;2024-02-14T16:56:05;10.70;99.90
4739;DHT22;2383;48.632;10.156;2024-02-14T17:00:09;10.60;99.90
4739;DHT22;2383;48.632;10.156;2024-02-14T17:04:11;10.60;99.90
4739;DHT22;2383;48.632;10.156;2024-02-14T17:08:14;10.70;99.90
4739;DHT22;2383;48.632;10.156;2024-02-14T17:12:16;10.60;99.90
4739;DHT22;2383;48.632;10.156;2024-02-14T17:16:18;10.60;99.90
4739;DHT22;2383;48.632;10.156;2024-02-14T17:20:21;10.50;99.90
4739;DHT22;2383;48.632;10.156;2024-02-14T17:24:23;10.50;99.90
4739;DHT22;2383;48.632;10.156;2024-02-14T17:28:26;10.50;99.90
4739;DHT22;2383;48.632;10.156;2024-02-14T17:32:28;10.60;99.90
4739;DHT22;2383;48.632;10.156;2024-02-14T17:36:40;10.60;99.90
4739;DHT22;2383;48.632;10.156;2024-02-14T17:40:42;10.40;99.90
4739;DHT22;2383;48.632;10.156;2024-02-14T17:44:46;10.40;99.90
4739;DHT22;2383;48.632;10.156;2024-02-14T17:48:49;10.40;99.90
4739;DHT22;2383;48.632;10.156;2024-02-14T17:52:51;10.40;99.90
4739;DHT22;2383;48.632;10.156;2024-02-14T17:56:53;10.40;99.90
4739;DHT22;2383;48.632;10.156;2024-02-14T18:00:55;10.30;99.90
4739;DHT22;2383;48.632;10.156;2024-02-14T18:04:58;10.40;99.90
4739;DHT22;2383;48.632;10.156;2024-02-14T18:09:01;10.40;99.90
4739;DHT22;2383;48.632;10.156;2024-02-14T18:13:04;10.40;99.90
4739;DHT22;2383;48.632;10.156;2024-02-14T18:17:06;10.30;99.90
4739;DHT22;2383;48.632;10.156;2024-02-14T18:21:08;10.30;99.90
4739;DHT22;2383;48.632;10.156;2024-02-14T18:25:11;10.30;99.90
4739;DHT22;2383;48.632;10.156;2024-02-14T18:29:13;10.20;99.90
4739;DHT22;2383;48.632;10.156;2024-02-14T18:33:16;10.30;99.90
4739;DHT22;2383;48.632;10.156;2024-02-14T18:37:18;10.30;99.90
4739;DHT22;2383;48.632;10.156;2024-02-14T18:41:21;10.20;99.90
4739;DHT22;2383;48.632;10.156;2024-02-14T18:45:23;10.20;99.90
4739;DHT22;2383;48.632;10.156;2024-02-14T18:49:25;10.10;99.90
4739;DHT22;2383;48.632;10.156;2024-02-14T18:53:28;10.10;99.90
4739;DHT22;2383;48.632;10.156;2024-02-14T18:57:31;10.00;99.90
4739;DHT22;2383;48.632;10.156;2024-02-14T19:01:33;10.00;99.90
4739;DHT22;2383;48.632;10.156;2024-02-14T19:05:35;10.00;99.90
4739;DHT22;2383;48.632;10.156;2024-02-14T19:09:38;9.90;99.90
4739;DHT22;2383;48.632;10.156;2024-02-14T19:13:40;9.90;99.90
4739;DHT22;2383;48.632;10.156;2024-02-14T19:17:42;9.90;99.90
4739;DHT22;2383;48.632;10.156;2024-02-14T19:21:45;9.90;99.90
4739;DHT22;2383;48.632;10.156;2024-02-14T19:25:48;9.90;99.90
4739;DHT22;2383;48.632;10.156;2024-02-14T19:29:55;9.80;99.90
4739;DHT22;2383;48.632;10.156;2024-02-14T19:33:57;9.90;99.90
4739;DHT22;2383;48.632;10.156;2024-02-14T19:38:00;9.80;99.90
4739;DHT22;2383;48.632;10.156;2024-02-14T19:42:03;9.70;99.90
4739;DHT22;2383;48.632;10.156;2024-02-14T19:46:05;9.60;99.90
4739;DHT22;2383;48.632;10.156;2024-02-14T19:50:08;9.70;99.90
4739;DHT22;2383;48.632;10.156;2024-02-14T19:54:13;9.80;99.90
4739;DHT22;2383;48.632;10.156;2024-02-14T19:58:17;9.80;99.90
4739;DHT22;2383;48.632;10.156;2024-02-14T20:02:20;9.90;99.90
4739;DHT22;2383;48.632;10.156;2024-02-14T20:06:23;9.80;99.90
4739;DHT22;2383;48.632;10.156;2024-02-14T20:10:25;9.80;99.90
4739;DHT22;2383;48.632;10.156;2024-02-14T20:14:27;9.80;99.90
4739;DHT22;2383;48.632;10.156;2024-02-14T20:18:29;9.80;99.90
4739;DHT22;2383;48.632;10.156;2024-02-14T20:22:33;9.80;99.90
4739;DHT22;2383;48.632;10.156;2024-02-14T20:26:35;9.70;99.90
4739;DHT22;2383;48.632;10.156;2024-02-14T20:30:40;9.60;99.90
4739;DHT22;2383;48.632;10.156;2024-02-14T20:34:42;9.40;99.90
4739;DHT22;2383;48.632;10.156;2024-02-14T20:38:46;9.50;99.90
4739;DHT22;2383;48.632;10.156;2024-02-14T20:42:48;9.60;99.90
4739;DHT22;2383;48.632;10.156;2024-02-14T20:46:51;9.60;99.90
4739;DHT22;2383;48.632;10.156;2024-02-14T20:50:54;9.70;99.90
4739;DHT22;2383;48.632;10.156;2024-02-14T20:54:57;9.60;99.90
4739;DHT22;2383;48.632;10.156;2024-02-14T20:58:59;9.50;99.90
4739;DHT22;2383;48.632;10.156;2024-02-14T21:03:16;9.60;99.90
4739;DHT22;2383;48.632;10.156;2024-02-14T21:07:19;9.50;99.90
4739;DHT22;2383;48.632;10.156;2024-02-14T21:11:22;9.50;99.90
4739;DHT22;2383;48.632;10.156;2024-02-14T21:15:24;9.40;99.90
4739;DHT22;2383;48.632;10.156;2024-02-14T21:19:27;9.40;99.90
4739;DHT22;2383;48.632;10.156;2024-02-14T21:23:30;9.50;99.90
4739;DHT22;2383;48.632;10.156;2024-02-14T21:27:33;9.40;99.90
4739;DHT22;2383;48.632;10.156;2024-02-14T21:31:36;9.00;99.90
4739;DHT22;2383;48.632;10.156;2024-02-14T21:35:38;9.00;99.90
4739;DHT22;2383;48.632;10.156;2024-02-14T21:39:41;9.00;99.90
4739;DHT22;2383;48.632;10.156;2024-02-14T21:43:43;9.30;99.90
4739;DHT22;2383;48.632;10.156;2024-02-14T21:47:45;9.20;99.90
4739;DHT22;2383;48.632;10.156;2024-02-14T21:51:47;9.20;99.90
4739;DHT22;2383;48.632;10.156;2024-02-14T21:55:51;9.10;99.90
4739;DHT22;2383;48.632;10.156;2024-02-14T21:59:54;9.00;99.90
4739;DHT22;2383;48.632;10.156;2024-02-14T22:03:56;9.00;99.90
4739;DHT22;2383;48.632;10.156;2024-02-14T22:07:59;9.00;99.90
4739;DHT22;2383;48.632;10.156;2024-02-14T22:12:02;8.90;99.90
4739;DHT22;2383;48.632;10.156;2024-02-14T22:16:05;8.90;99.90
4739;DHT22;2383;48.632;10.156;2024-02-14T22:20:07;8.90;99.90
4739;DHT22;2383;48.632;10.156;2024-02-14T22:24:11;8.90;99.90
4739;DHT22;2383;48.632;10.156;2024-02-14T22:28:14;8.80;99.90
4739;DHT22;2383;48.632;10.156;2024-02-14T22:32:16;8.80;99.90
4739;DHT22;2383;48.632;10.156;2024-02-14T22:36:19;8.70;99.90
4739;DHT22;2383;48.632;10.156;2024-02-14T22:40:21;8.70;99.90
4739;DHT22;2383;48.632;10.156;2024-02-14T22:44:23;8.70;99.90
4739;DHT22;2383;48.632;10.156;2024-02-14T22:48:25;8.60;99.90
4739;DHT22;2383;48.632;10.156;2024-02-14T22:52:28;8.60;99.90
4739;DHT22;2383;48.632;10.156;2024-02-14T22:56:30;8.50;99.90
4739;DHT22;2383;48.632;10.156;2024-02-14T23:00:33;8.50;99.90
4739;DHT22;2383;48.632;10.156;2024-02-14T23:04:36;8.40;99.90
4739;DHT22;2383;48.632;10.156;2024-02-14T23:08:40;8.30;99.90
4739;DHT22;2383;48.632;10.156;2024-02-14T23:12:45;8.40;99.90
4739;DHT22;2383;48.632;10.156;2024-02-14T23:16:49;8.40;99.90
4739;DHT22;2383;48.632;10.156;2024-02-14T23:20:51;8.40;99.90
4739;DHT22;2383;48.632;10.156;2024-02-14T23:24:54;8.40;99.90
4739;DHT22;2383;48.632;10.156;2024-02-14T23:28:56;8.50;99.90
4739;DHT22;2383;48.632;10.156;2024-02-14T23:32:59;8.50;99.90
4739;DHT22;2383;48.632;10.156;2024-02-14T23:37:01;8.50;99.90
4739;DHT22;2383;48.632;10.156;2024-02-14T23:41:04;8.50;99.90
4739;DHT22;2383;48.632;10.156;2024-02-14T23:45:07;8.60;99.90
4739;DHT22;2383;48.632;10.156;2024-02-14T23:49:12;8.60;99.90
4739;DHT22;2383;48.632;10.156;2024-02-14T23:53:14;8.70;99.90
4739;DHT22;2383;48.632;10.156;2024-02-14T23:57:17;8.70;99.90
